createdAt,value
2016-04-17T00:00:34.990Z,0
2016-04-17T00:01:35.007Z,0
2016-04-17T00:02:34.995Z,0
2016-04-17T00:03:35.013Z,0
2016-04-17T00:04:35.032Z,0
2016-04-17T00:05:35.050Z,0
2016-04-17T00:06:34.881Z,0
2016-04-17T00:07:35.055Z,0
2016-04-17T00:08:35.057Z,0
2016-04-17T00:09:35.405Z,0
2016-04-17T00:10:35.063Z,0
2016-04-17T00:11:35.066Z,0
2016-04-17T00:12:35.085Z,0
2016-04-17T00:13:35.103Z,0
2016-04-17T00:14:35.120Z,0
2016-04-17T00:15:35.123Z,0
2016-04-17T00:16:35.111Z,0
2016-04-17T00:17:35.145Z,0
2016-04-17T00:18:35.131Z,0
2016-04-17T00:19:35.134Z,0
2016-04-17T00:20:35.152Z,0
2016-04-17T00:21:35.156Z,0
2016-04-17T00:22:35.158Z,0
2016-04-17T00:23:35.177Z,0
2016-04-17T00:24:35.586Z,0
2016-04-17T00:25:35.182Z,0
2016-04-17T00:26:35.200Z,0
2016-04-17T00:27:35.202Z,0
2016-04-17T00:28:35.205Z,0
2016-04-17T00:29:35.207Z,0
2016-04-17T00:30:35.210Z,0
2016-04-17T00:31:35.229Z,0
2016-04-17T00:32:35.232Z,0
2016-04-17T00:33:35.249Z,0
2016-04-17T00:34:35.268Z,0
2016-04-17T00:35:35.255Z,0
2016-04-17T00:36:35.258Z,0
2016-04-17T00:37:35.277Z,0
2016-04-17T00:38:35.279Z,0
2016-04-17T00:39:35.204Z,0
2016-04-17T00:40:35.300Z,0
2016-04-17T00:41:35.303Z,0
2016-04-17T00:42:35.306Z,0
2016-04-17T00:43:35.324Z,0
2016-04-17T00:44:35.326Z,0
2016-04-17T00:45:35.345Z,0
2016-04-17T00:46:35.331Z,0
2016-04-17T00:47:35.366Z,0
2016-04-17T00:48:35.353Z,0
2016-04-17T00:49:35.372Z,0
2016-04-17T00:50:35.359Z,0
2016-04-17T00:51:35.377Z,0
2016-04-17T00:52:35.380Z,0
2016-04-17T00:53:35.398Z,0
2016-04-17T00:54:35.698Z,0
2016-04-17T00:55:35.403Z,0
2016-04-17T00:56:35.406Z,0
2016-04-17T00:57:35.424Z,0
2016-04-17T00:58:35.427Z,0
2016-04-17T00:59:35.429Z,0
2016-04-17T01:00:35.433Z,0
2016-04-17T01:01:35.466Z,0
2016-04-17T01:02:35.453Z,0
2016-04-17T01:03:35.455Z,0
2016-04-17T01:04:35.490Z,0
2016-04-17T01:05:35.508Z,0
2016-04-17T01:06:35.480Z,0
2016-04-17T01:07:35.498Z,0
2016-04-17T01:08:35.501Z,0
2016-04-17T01:09:35.425Z,0
2016-04-17T01:10:35.521Z,0
2016-04-17T01:11:35.524Z,0
2016-04-17T01:12:35.527Z,0
2016-04-17T01:13:35.546Z,0
2016-04-17T01:14:35.548Z,0
2016-04-17T01:15:35.550Z,0
2016-04-17T01:16:35.569Z,0
2016-04-17T01:17:35.572Z,0
2016-04-17T01:18:35.575Z,0
2016-04-17T01:19:35.578Z,0
2016-04-17T01:20:35.580Z,0
2016-04-17T01:21:35.598Z,0
2016-04-17T01:22:35.600Z,0
2016-04-17T01:23:35.603Z,0
2016-04-17T01:24:35.794Z,0
2016-04-17T01:25:35.625Z,0
2016-04-17T01:26:35.642Z,0
2016-04-17T01:27:35.661Z,0
2016-04-17T01:28:35.647Z,0
2016-04-17T01:29:35.650Z,0
2016-04-17T01:30:35.653Z,0
2016-04-17T01:31:35.688Z,0
2016-04-17T01:32:35.674Z,0
2016-04-17T01:33:35.708Z,0
2016-04-17T01:34:35.695Z,0
2016-04-17T01:35:35.714Z,0
2016-04-17T01:36:35.701Z,0
2016-04-17T01:37:35.719Z,0
2016-04-17T01:38:35.721Z,0
2016-04-17T01:39:35.631Z,0
2016-04-17T01:40:35.758Z,0
2016-04-17T01:41:35.777Z,0
2016-04-17T01:42:35.764Z,0
2016-04-17T01:43:35.767Z,0
2016-04-17T01:44:35.769Z,0
2016-04-17T01:45:35.647Z,0
2016-04-17T01:46:35.790Z,0
2016-04-17T01:47:35.809Z,0
2016-04-17T01:48:35.811Z,0
2016-04-17T01:49:35.079Z,0
2016-04-17T01:50:35.816Z,0
2016-04-17T01:51:35.819Z,0
2016-04-17T01:52:35.837Z,0
2016-04-17T01:53:35.856Z,0
2016-04-17T01:54:35.906Z,0
2016-04-17T01:55:35.845Z,0
2016-04-17T01:56:35.692Z,0
2016-04-17T01:57:35.866Z,0
2016-04-17T01:58:35.869Z,0
2016-04-17T01:59:35.903Z,0
2016-04-17T02:00:35.906Z,0
2016-04-17T02:01:35.908Z,0
2016-04-17T02:02:35.896Z,0
2016-04-17T02:03:35.898Z,0
2016-04-17T02:04:35.917Z,0
2016-04-17T02:05:35.919Z,0
2016-04-17T02:06:35.938Z,0
2016-04-17T02:07:35.940Z,0
2016-04-17T02:08:35.943Z,0
2016-04-17T02:09:35.962Z,0
2016-04-17T02:10:35.980Z,0
2016-04-17T02:11:35.982Z,0
2016-04-17T02:12:35.251Z,0
2016-04-17T02:13:35.972Z,0
2016-04-17T02:14:36.006Z,0
2016-04-17T02:15:36.008Z,0
2016-04-17T02:16:36.012Z,0
2016-04-17T02:17:36.014Z,0
2016-04-17T02:18:35.876Z,0
2016-04-17T02:19:36.034Z,0
2016-04-17T02:20:36.053Z,0
2016-04-17T02:21:35.728Z,0
2016-04-17T02:22:36.064Z,0
2016-04-17T02:23:36.066Z,0
2016-04-17T02:24:36.085Z,0
2016-04-17T02:25:36.103Z,0
2016-04-17T02:26:36.090Z,0
2016-04-17T02:27:36.093Z,0
2016-04-17T02:28:36.096Z,0
2016-04-17T02:29:36.113Z,0
2016-04-17T02:30:36.101Z,0
2016-04-17T02:31:36.135Z,0
2016-04-17T02:32:36.122Z,0
2016-04-17T02:33:36.141Z,0
2016-04-17T02:34:36.174Z,0
2016-04-17T02:35:36.146Z,0
2016-04-17T02:36:36.148Z,0
2016-04-17T02:37:36.166Z,0
2016-04-17T02:38:36.169Z,0
2016-04-17T02:39:36.188Z,0
2016-04-17T02:40:36.190Z,0
2016-04-17T02:41:36.193Z,0
2016-04-17T02:42:36.195Z,0
2016-04-17T02:43:36.214Z,0
2016-04-17T02:44:36.232Z,0
2016-04-17T02:45:36.220Z,0
2016-04-17T02:46:36.237Z,0
2016-04-17T02:47:36.240Z,0
2016-04-17T02:48:36.258Z,0
2016-04-17T02:49:36.262Z,0
2016-04-17T02:50:36.264Z,0
2016-04-17T02:51:36.283Z,0
2016-04-17T02:52:36.269Z,0
2016-04-17T02:53:36.288Z,0
2016-04-17T02:54:36.290Z,0
2016-04-17T02:55:36.294Z,0
2016-04-17T02:56:36.327Z,0
2016-04-17T02:57:36.314Z,0
2016-04-17T02:58:36.316Z,0
2016-04-17T02:59:36.335Z,0
2016-04-17T03:00:36.338Z,0
2016-04-17T03:01:36.340Z,0
2016-04-17T03:02:36.343Z,0
2016-04-17T03:03:36.346Z,0
2016-04-17T03:04:36.364Z,0
2016-04-17T03:05:36.366Z,0
2016-04-17T03:06:36.385Z,0
2016-04-17T03:07:36.388Z,0
2016-04-17T03:08:36.234Z,0
2016-04-17T03:09:36.393Z,0
2016-04-17T03:10:36.412Z,0
2016-04-17T03:11:36.398Z,0
2016-04-17T03:12:36.432Z,0
2016-04-17T03:13:36.420Z,0
2016-04-17T03:14:36.423Z,0
2016-04-17T03:15:36.425Z,0
2016-04-17T03:16:36.443Z,0
2016-04-17T03:17:36.461Z,0
2016-04-17T03:18:36.480Z,0
2016-04-17T03:19:36.483Z,0
2016-04-17T03:20:36.469Z,0
2016-04-17T03:21:36.534Z,0
2016-04-17T03:22:36.475Z,0
2016-04-17T03:23:36.525Z,0
2016-04-17T03:24:36.528Z,0
2016-04-17T03:25:36.499Z,0
2016-04-17T03:26:36.517Z,0
2016-04-17T03:27:36.519Z,0
2016-04-17T03:28:36.538Z,0
2016-04-17T03:29:36.571Z,0
2016-04-17T03:30:36.606Z,0
2016-04-17T03:31:36.577Z,0
2016-04-17T03:32:36.564Z,0
2016-04-17T03:33:36.566Z,0
2016-04-17T03:34:36.585Z,0
2016-04-17T03:35:36.587Z,0
2016-04-17T03:36:36.622Z,0
2016-04-17T03:37:36.624Z,0
2016-04-17T03:38:36.612Z,0
2016-04-17T03:39:36.645Z,0
2016-04-17T03:40:36.617Z,0
2016-04-17T03:41:36.635Z,0
2016-04-17T03:42:36.670Z,0
2016-04-17T03:43:36.640Z,0
2016-04-17T03:44:36.659Z,0
2016-04-17T03:45:36.662Z,0
2016-04-17T03:46:36.680Z,0
2016-04-17T03:47:36.667Z,0
2016-04-17T03:48:36.701Z,0
2016-04-17T03:49:36.689Z,0
2016-04-17T03:50:36.707Z,0
2016-04-17T03:51:36.709Z,0
2016-04-17T03:52:36.711Z,0
2016-04-17T03:53:36.715Z,0
2016-04-17T03:54:36.717Z,0
2016-04-17T03:55:36.736Z,0
2016-04-17T03:56:36.753Z,0
2016-04-17T03:57:36.756Z,0
2016-04-17T03:58:36.744Z,0
2016-04-17T03:59:36.777Z,0
2016-04-17T04:00:36.780Z,0
2016-04-17T04:01:36.799Z,0
2016-04-17T04:02:36.786Z,0
2016-04-17T04:03:36.788Z,0
2016-04-17T04:04:36.807Z,0
2016-04-17T04:05:36.810Z,0
2016-04-17T04:06:36.656Z,0
2016-04-17T04:07:36.830Z,0
2016-04-17T04:08:36.833Z,0
2016-04-17T04:09:36.851Z,0
2016-04-17T04:10:36.838Z,0
2016-04-17T04:11:36.872Z,0
2016-04-17T04:12:36.844Z,0
2016-04-17T04:13:36.878Z,0
2016-04-17T04:14:36.881Z,0
2016-04-17T04:15:36.883Z,0
2016-04-17T04:16:36.887Z,0
2016-04-17T04:17:36.889Z,0
2016-04-17T04:18:36.892Z,0
2016-04-17T04:19:36.909Z,0
2016-04-17T04:20:36.912Z,0
2016-04-17T04:21:36.914Z,0
2016-04-17T04:22:36.948Z,0
2016-04-17T04:23:36.951Z,0
2016-04-17T04:24:36.954Z,0
2016-04-17T04:25:36.972Z,0
2016-04-17T04:26:36.959Z,0
2016-04-17T04:27:36.961Z,0
2016-04-17T04:28:36.964Z,0
2016-04-17T04:29:36.983Z,0
2016-04-17T04:30:36.986Z,0
2016-04-17T04:31:37.020Z,0
2016-04-17T04:32:37.038Z,0
2016-04-17T04:33:37.025Z,0
2016-04-17T04:34:37.013Z,0
2016-04-17T04:35:37.047Z,0
2016-04-17T04:36:37.033Z,0
2016-04-17T04:37:37.036Z,0
2016-04-17T04:38:37.038Z,0
2016-04-17T04:39:37.073Z,0
2016-04-17T04:40:37.076Z,0
2016-04-17T04:41:37.078Z,0
2016-04-17T04:42:37.081Z,0
2016-04-17T04:43:37.084Z,0
2016-04-17T04:44:37.086Z,0
2016-04-17T04:45:37.104Z,0
2016-04-17T04:46:36.950Z,0
2016-04-17T04:47:37.126Z,0
2016-04-17T04:48:37.128Z,0
2016-04-17T04:49:37.131Z,0
2016-04-17T04:50:37.164Z,0
2016-04-17T04:51:37.151Z,0
2016-04-17T04:52:37.170Z,0
2016-04-17T04:53:37.017Z,0
2016-04-17T04:54:37.159Z,0
2016-04-17T04:55:37.506Z,0
2016-04-17T04:56:37.211Z,0
2016-04-17T04:57:37.199Z,0
2016-04-17T04:58:37.217Z,0
2016-04-17T04:59:37.063Z,0
2016-04-17T05:00:37.208Z,0
2016-04-17T05:01:37.225Z,0
2016-04-17T05:02:37.228Z,0
2016-04-17T05:03:37.230Z,0
2016-04-17T05:04:37.233Z,0
2016-04-17T05:05:37.096Z,0
2016-04-17T05:06:37.255Z,0
2016-04-17T05:07:37.257Z,0
2016-04-17T05:08:37.276Z,0
2016-04-17T05:09:37.278Z,0
2016-04-17T05:10:37.313Z,0
2016-04-17T05:11:37.299Z,0
2016-04-17T05:12:37.333Z,0
2016-04-17T05:13:37.304Z,0
2016-04-17T05:14:37.307Z,0
2016-04-17T05:15:37.309Z,0
2016-04-17T05:16:37.329Z,0
2016-04-17T05:17:37.346Z,0
2016-04-17T05:18:37.349Z,0
2016-04-17T05:19:37.367Z,0
2016-04-17T05:20:37.354Z,0
2016-04-17T05:21:37.356Z,0
2016-04-17T05:22:37.376Z,0
2016-04-17T05:23:37.394Z,0
2016-04-17T05:24:37.365Z,0
2016-04-17T05:25:37.477Z,0
2016-04-17T05:26:37.495Z,0
2016-04-17T05:27:37.389Z,0
2016-04-17T05:28:37.408Z,0
2016-04-17T05:29:37.425Z,0
2016-04-17T05:30:37.428Z,0
2016-04-17T05:31:37.447Z,0
2016-04-17T05:32:37.496Z,0
2016-04-17T05:33:37.452Z,0
2016-04-17T05:34:37.471Z,0
2016-04-17T05:35:37.474Z,0
2016-04-17T05:36:37.476Z,0
2016-04-17T05:37:37.494Z,0
2016-04-17T05:38:37.481Z,0
2016-04-17T05:39:37.499Z,0
2016-04-17T05:40:37.580Z,0
2016-04-17T05:41:37.505Z,0
2016-04-17T05:42:37.507Z,0
2016-04-17T05:43:37.510Z,0
2016-04-17T05:44:37.529Z,0
2016-04-17T05:45:37.532Z,0
2016-04-17T05:46:37.534Z,0
2016-04-17T05:47:37.552Z,0
2016-04-17T05:48:37.555Z,0
2016-04-17T05:49:37.573Z,0
2016-04-17T05:50:37.560Z,0
2016-04-17T05:51:37.579Z,0
2016-04-17T05:52:37.598Z,0
2016-04-17T05:53:37.600Z,0
2016-04-17T05:54:37.665Z,0
2016-04-17T05:55:37.745Z,0
2016-04-17T05:56:37.623Z,0
2016-04-17T05:57:37.625Z,0
2016-04-17T05:58:37.629Z,0
2016-04-17T05:59:37.631Z,0
2016-04-17T06:00:37.650Z,0
2016-04-17T06:01:37.652Z,0
2016-04-17T06:02:37.656Z,0
2016-04-17T06:03:37.726Z,0
2016-04-17T06:04:37.753Z,0
2016-04-17T06:05:37.811Z,0
2016-04-17T06:06:37.839Z,0
2016-04-17T06:07:37.896Z,0
2016-04-17T06:08:37.915Z,0
2016-04-17T06:09:37.948Z,0
2016-04-17T06:10:38.059Z,0
2016-04-17T06:11:37.982Z,0
2016-04-17T06:12:37.999Z,0
2016-04-17T06:13:38.038Z,0
2016-04-17T06:14:38.031Z,0
2016-04-17T06:15:38.039Z,0
2016-04-17T06:16:38.047Z,0
2016-04-17T06:17:38.071Z,0
2016-04-17T06:18:38.075Z,0
2016-04-17T06:19:38.096Z,0
2016-04-17T06:20:38.084Z,0
2016-04-17T06:21:37.996Z,0
2016-04-17T06:22:38.110Z,0
2016-04-17T06:23:38.128Z,0
2016-04-17T06:24:38.132Z,0
2016-04-17T06:25:38.010Z,0
2016-04-17T06:26:38.155Z,0
2016-04-17T06:27:38.159Z,0
2016-04-17T06:28:38.161Z,0
2016-04-17T06:29:38.180Z,0
2016-04-17T06:30:38.166Z,0
2016-04-17T06:31:38.185Z,0
2016-04-17T06:32:38.203Z,0
2016-04-17T06:33:38.205Z,0
2016-04-17T06:34:38.193Z,0
2016-04-17T06:35:38.227Z,0
2016-04-17T06:36:38.057Z,0
2016-04-17T06:37:38.232Z,0
2016-04-17T06:38:38.250Z,0
2016-04-17T06:39:38.237Z,0
2016-04-17T06:40:38.116Z,0
2016-04-17T06:41:38.258Z,0
2016-04-17T06:42:38.276Z,0
2016-04-17T06:43:38.280Z,0
2016-04-17T06:44:38.282Z,0
2016-04-17T06:45:38.285Z,0
2016-04-17T06:46:38.288Z,0
2016-04-17T06:47:38.306Z,0
2016-04-17T06:48:38.309Z,0
2016-04-17T06:49:38.327Z,0
2016-04-17T06:50:38.329Z,0
2016-04-17T06:51:38.332Z,0
2016-04-17T06:52:38.335Z,0
2016-04-17T06:53:38.337Z,0
2016-04-17T06:54:38.340Z,0
2016-04-17T06:55:38.358Z,0
2016-04-17T06:56:38.361Z,0
2016-04-17T06:57:38.381Z,0
2016-04-17T06:58:38.382Z,0
2016-04-17T06:59:38.386Z,0
2016-04-17T07:00:38.388Z,0
2016-04-17T07:01:38.406Z,0
2016-04-17T07:02:38.409Z,0
2016-04-17T07:03:38.427Z,0
2016-04-17T07:04:38.430Z,0
2016-04-17T07:05:38.433Z,0
2016-04-17T07:06:38.435Z,0
2016-04-17T07:07:38.453Z,0
2016-04-17T07:08:38.441Z,0
2016-04-17T07:09:38.458Z,0
2016-04-17T07:10:38.477Z,0
2016-04-17T07:11:38.463Z,0
2016-04-17T07:12:38.342Z,0
2016-04-17T07:13:38.501Z,0
2016-04-17T07:14:38.503Z,0
2016-04-17T07:15:38.521Z,0
2016-04-17T07:16:38.352Z,0
2016-04-17T07:17:38.511Z,0
2016-04-17T07:18:38.530Z,0
2016-04-17T07:19:38.532Z,0
2016-04-17T07:20:38.535Z,0
2016-04-17T07:21:38.397Z,0
2016-04-17T07:22:38.541Z,0
2016-04-17T07:23:38.559Z,0
2016-04-17T07:24:38.562Z,0
2016-04-17T07:25:38.580Z,0
2016-04-17T07:26:38.583Z,0
2016-04-17T07:27:38.586Z,0
2016-04-17T07:28:38.604Z,0
2016-04-17T07:29:38.622Z,0
2016-04-17T07:30:38.625Z,0
2016-04-17T07:31:38.627Z,0
2016-04-17T07:32:38.614Z,0
2016-04-17T07:33:38.633Z,0
2016-04-17T07:34:38.651Z,0
2016-04-17T07:35:38.653Z,0
2016-04-17T07:36:38.656Z,0
2016-04-17T07:37:38.659Z,0
2016-04-17T07:38:38.694Z,0
2016-04-17T07:39:38.696Z,0
2016-04-17T07:40:38.699Z,0
2016-04-17T07:41:38.716Z,0
2016-04-17T07:42:38.735Z,0
2016-04-17T07:43:38.722Z,0
2016-04-17T07:44:38.725Z,5
2016-04-17T07:45:38.743Z,0
2016-04-17T07:46:38.730Z,0
2016-04-17T07:47:38.732Z,0
2016-04-17T07:48:40.095Z,0
2016-04-17T07:49:38.754Z,0
2016-04-17T07:50:38.756Z,0
2016-04-17T07:51:38.759Z,0
2016-04-17T07:52:38.606Z,5
2016-04-17T07:53:38.781Z,5
2016-04-17T07:54:38.799Z,5
2016-04-17T07:55:38.786Z,5
2016-04-17T07:56:38.820Z,5
2016-04-17T07:57:38.837Z,0
2016-04-17T07:58:38.825Z,5
2016-04-17T07:59:38.827Z,0
2016-04-17T08:00:38.846Z,0
2016-04-17T08:01:38.833Z,0
2016-04-17T08:02:38.867Z,0
2016-04-17T08:03:38.885Z,0
2016-04-17T08:04:38.919Z,0
2016-04-17T08:05:38.891Z,0
2016-04-17T08:06:38.893Z,0
2016-04-17T08:07:38.896Z,0
2016-04-17T08:08:39.430Z,0
2016-04-17T08:09:38.933Z,0
2016-04-17T08:10:38.905Z,0
2016-04-17T08:11:38.938Z,5
2016-04-17T08:12:38.956Z,5
2016-04-17T08:13:38.959Z,5
2016-04-17T08:14:38.946Z,5
2016-04-17T08:15:38.965Z,5
2016-04-17T08:16:38.936Z,5
2016-04-17T08:17:38.954Z,5
2016-04-17T08:18:38.956Z,5
2016-04-17T08:19:38.975Z,5
2016-04-17T08:20:38.978Z,5
2016-04-17T08:21:39.011Z,5
2016-04-17T08:22:39.015Z,5
2016-04-17T08:23:39.017Z,5
2016-04-17T08:24:38.989Z,5
2016-04-17T08:25:39.037Z,5
2016-04-17T08:26:39.025Z,5
2016-04-17T08:27:39.028Z,5
2016-04-17T08:28:39.031Z,5
2016-04-17T08:29:39.049Z,5
2016-04-17T08:30:39.051Z,5
2016-04-17T08:31:39.054Z,5
2016-04-17T08:32:39.072Z,5
2016-04-17T08:33:39.075Z,5
2016-04-17T08:34:39.078Z,5
2016-04-17T08:35:39.096Z,5
2016-04-17T08:36:39.130Z,5
2016-04-17T08:37:39.102Z,5
2016-04-17T08:38:39.104Z,5
2016-04-17T08:39:39.122Z,5
2016-04-17T08:40:39.125Z,5
2016-04-17T08:41:39.144Z,5
2016-04-17T08:42:39.147Z,5
2016-04-17T08:43:39.166Z,5
2016-04-17T08:44:39.152Z,5
2016-04-17T08:45:39.170Z,5
2016-04-17T08:46:39.157Z,5
2016-04-17T08:47:39.222Z,5
2016-04-17T08:48:39.038Z,5
2016-04-17T08:49:39.181Z,5
2016-04-17T08:50:39.215Z,5
2016-04-17T08:51:39.202Z,5
2016-04-17T08:52:39.205Z,5
2016-04-17T08:53:39.223Z,5
2016-04-17T08:54:39.225Z,5
2016-04-17T08:55:39.275Z,5
2016-04-17T08:56:39.262Z,5
2016-04-17T08:57:39.249Z,5
2016-04-17T08:58:39.252Z,5
2016-04-17T08:59:39.270Z,5
2016-04-17T09:00:39.117Z,5
2016-04-17T09:01:39.292Z,5
2016-04-17T09:02:39.278Z,5
2016-04-17T09:03:39.297Z,5
2016-04-17T09:04:39.299Z,5
2016-04-17T09:05:39.317Z,5
2016-04-17T09:06:39.336Z,5
2016-04-17T09:07:39.339Z,5
2016-04-17T09:08:39.341Z,5
2016-04-17T09:09:39.344Z,5
2016-04-17T09:10:39.346Z,5
2016-04-17T09:11:39.366Z,5
2016-04-17T09:12:39.571Z,5
2016-04-17T09:13:39.371Z,5
2016-04-17T09:14:39.373Z,5
2016-04-17T09:15:39.377Z,5
2016-04-17T09:16:39.394Z,5
2016-04-17T09:17:39.397Z,5
2016-04-17T09:18:39.399Z,10
2016-04-17T09:19:39.402Z,10
2016-04-17T09:20:39.436Z,10
2016-04-17T09:21:39.438Z,10
2016-04-17T09:22:39.426Z,10
2016-04-17T09:23:39.428Z,10
2016-04-17T09:24:39.447Z,10
2016-04-17T09:25:39.465Z,10
2016-04-17T09:26:39.468Z,10
2016-04-17T09:27:39.471Z,10
2016-04-17T09:28:39.490Z,10
2016-04-17T09:29:39.492Z,10
2016-04-17T09:30:39.495Z,10
2016-04-17T09:31:39.512Z,10
2016-04-17T09:32:39.531Z,10
2016-04-17T09:33:39.518Z,10
2016-04-17T09:34:39.521Z,10
2016-04-17T09:35:39.539Z,10
2016-04-17T09:36:39.558Z,10
2016-04-17T09:37:39.545Z,10
2016-04-17T09:38:39.548Z,10
2016-04-17T09:39:39.550Z,10
2016-04-17T09:40:39.569Z,10
2016-04-17T09:41:39.572Z,10
2016-04-17T09:42:39.589Z,10
2016-04-17T09:43:39.607Z,10
2016-04-17T09:44:39.594Z,10
2016-04-17T09:45:39.597Z,10
2016-04-17T09:46:39.616Z,10
2016-04-17T09:47:39.618Z,10
2016-04-17T09:48:39.637Z,10
2016-04-17T09:49:39.639Z,10
2016-04-17T09:50:39.642Z,10
2016-04-17T09:51:39.661Z,10
2016-04-17T09:52:39.663Z,10
2016-04-17T09:53:39.666Z,15
2016-04-17T09:54:39.685Z,15
2016-04-17T09:55:39.530Z,15
2016-04-17T09:56:39.690Z,15
2016-04-17T09:57:39.693Z,15
2016-04-17T09:58:39.710Z,15
2016-04-17T09:59:39.712Z,15
2016-04-17T10:00:39.731Z,15
2016-04-17T10:01:39.718Z,15
2016-04-17T10:02:39.721Z,15
2016-04-17T10:03:39.740Z,15
2016-04-17T10:04:39.759Z,15
2016-04-17T10:05:39.745Z,15
2016-04-17T10:06:39.764Z,15
2016-04-17T10:07:39.782Z,15
2016-04-17T10:08:39.784Z,15
2016-04-17T10:09:39.786Z,15
2016-04-17T10:10:39.821Z,15
2016-04-17T10:11:39.777Z,15
2016-04-17T10:12:39.826Z,15
2016-04-17T10:13:39.813Z,15
2016-04-17T10:14:39.816Z,15
2016-04-17T10:15:39.849Z,15
2016-04-17T10:16:39.853Z,10
2016-04-17T10:17:39.855Z,10
2016-04-17T10:18:39.858Z,10
2016-04-17T10:19:39.877Z,10
2016-04-17T10:20:39.863Z,10
2016-04-17T10:21:39.819Z,10
2016-04-17T10:22:39.884Z,10
2016-04-17T10:23:39.887Z,10
2016-04-17T10:24:39.905Z,10
2016-04-17T10:25:39.907Z,10
2016-04-17T10:26:39.832Z,15
2016-04-17T10:27:39.913Z,15
2016-04-17T10:28:39.916Z,15
2016-04-17T10:29:39.935Z,15
2016-04-17T10:30:39.953Z,15
2016-04-17T10:31:40.002Z,15
2016-04-17T10:32:39.973Z,10
2016-04-17T10:33:39.961Z,10
2016-04-17T10:34:39.979Z,10
2016-04-17T10:35:39.981Z,10
2016-04-17T10:36:39.984Z,10
2016-04-17T10:37:40.018Z,10
2016-04-17T10:38:39.271Z,10
2016-04-17T10:39:40.009Z,10
2016-04-17T10:40:40.026Z,10
2016-04-17T10:41:40.186Z,10
2016-04-17T10:42:40.031Z,10
2016-04-17T10:43:39.878Z,10
2016-04-17T10:44:40.053Z,10
2016-04-17T10:45:40.071Z,10
2016-04-17T10:46:40.075Z,10
2016-04-17T10:47:40.076Z,10
2016-04-17T10:48:40.080Z,10
2016-04-17T10:49:40.083Z,10
2016-04-17T10:50:40.085Z,10
2016-04-17T10:51:40.103Z,10
2016-04-17T10:52:40.106Z,10
2016-04-17T10:53:40.124Z,10
2016-04-17T10:54:40.111Z,10
2016-04-17T10:55:40.129Z,10
2016-04-17T10:56:40.226Z,10
2016-04-17T10:57:40.150Z,10
2016-04-17T10:58:40.153Z,10
2016-04-17T10:59:40.157Z,10
2016-04-17T11:00:40.174Z,10
2016-04-17T11:01:40.162Z,10
2016-04-17T11:02:40.179Z,10
2016-04-17T11:03:40.198Z,10
2016-04-17T11:04:40.045Z,10
2016-04-17T11:05:40.218Z,10
2016-04-17T11:06:40.206Z,10
2016-04-17T11:07:40.239Z,10
2016-04-17T11:08:40.226Z,10
2016-04-17T11:09:40.229Z,5
2016-04-17T11:10:40.247Z,5
2016-04-17T11:11:40.484Z,5
2016-04-17T11:12:40.269Z,5
2016-04-17T11:13:40.272Z,10
2016-04-17T11:14:40.290Z,10
2016-04-17T11:15:40.277Z,10
2016-04-17T11:16:40.311Z,10
2016-04-17T11:17:40.298Z,10
2016-04-17T11:18:40.316Z,10
2016-04-17T11:19:40.303Z,10
2016-04-17T11:20:40.306Z,5
2016-04-17T11:21:40.309Z,5
2016-04-17T11:22:40.327Z,0
2016-04-17T11:23:40.345Z,5
2016-04-17T11:24:40.348Z,0
2016-04-17T11:25:40.335Z,5
2016-04-17T11:26:40.416Z,5
2016-04-17T11:27:40.371Z,5
2016-04-17T11:28:40.374Z,5
2016-04-17T11:29:40.377Z,5
2016-04-17T11:30:40.379Z,10
2016-04-17T11:31:40.398Z,10
2016-04-17T11:32:40.401Z,10
2016-04-17T11:33:40.418Z,10
2016-04-17T11:34:40.454Z,10
2016-04-17T11:35:40.440Z,10
2016-04-17T11:36:40.442Z,10
2016-04-17T11:37:40.445Z,10
2016-04-17T11:38:40.464Z,10
2016-04-17T11:39:40.482Z,10
2016-04-17T11:40:40.469Z,10
2016-04-17T11:41:40.394Z,10
2016-04-17T11:42:40.475Z,10
2016-04-17T11:43:40.478Z,10
2016-04-17T11:44:40.496Z,10
2016-04-17T11:45:40.514Z,10
2016-04-17T11:46:40.548Z,10
2016-04-17T11:47:40.536Z,10
2016-04-17T11:48:40.553Z,10
2016-04-17T11:49:40.541Z,5
2016-04-17T11:50:40.543Z,5
2016-04-17T11:51:40.546Z,5
2016-04-17T11:52:40.563Z,5
2016-04-17T11:53:40.597Z,5
2016-04-17T11:54:40.569Z,5
2016-04-17T11:55:40.588Z,5
2016-04-17T11:56:40.793Z,5
2016-04-17T11:57:40.593Z,5
2016-04-17T11:58:40.627Z,5
2016-04-17T11:59:40.614Z,5
2016-04-17T12:00:40.633Z,5
2016-04-17T12:01:40.635Z,5
2016-04-17T12:02:40.669Z,5
2016-04-17T12:03:40.672Z,5
2016-04-17T12:04:40.659Z,5
2016-04-17T12:05:40.662Z,5
2016-04-17T12:06:40.680Z,5
2016-04-17T12:07:40.682Z,5
2016-04-17T12:08:40.685Z,5
2016-04-17T12:09:40.703Z,5
2016-04-17T12:10:40.690Z,5
2016-04-17T12:11:40.943Z,5
2016-04-17T12:12:40.712Z,5
2016-04-17T12:13:40.714Z,5
2016-04-17T12:14:40.983Z,5
2016-04-17T12:15:40.735Z,5
2016-04-17T12:16:40.738Z,5
2016-04-17T12:17:40.756Z,5
2016-04-17T12:18:40.758Z,5
2016-04-17T12:19:40.761Z,5
2016-04-17T12:20:40.045Z,5
2016-04-17T12:21:40.783Z,5
2016-04-17T12:22:40.785Z,5
2016-04-17T12:23:40.819Z,5
2016-04-17T12:24:40.790Z,5
2016-04-17T12:25:40.809Z,10
2016-04-17T12:26:40.859Z,10
2016-04-17T12:27:40.830Z,10
2016-04-17T12:28:40.849Z,10
2016-04-17T12:29:40.866Z,5
2016-04-17T12:30:40.869Z,5
2016-04-17T12:31:40.888Z,5
2016-04-17T12:32:40.875Z,5
2016-04-17T12:33:40.893Z,5
2016-04-17T12:34:40.880Z,5
2016-04-17T12:35:40.899Z,5
2016-04-17T12:36:40.885Z,5
2016-04-17T12:37:40.904Z,5
2016-04-17T12:38:40.907Z,5
2016-04-17T12:39:40.925Z,5
2016-04-17T12:40:40.943Z,10
2016-04-17T12:41:41.040Z,10
2016-04-17T12:42:40.948Z,10
2016-04-17T12:43:40.966Z,10
2016-04-17T12:44:40.953Z,10
2016-04-17T12:45:40.972Z,10
2016-04-17T12:46:40.959Z,10
2016-04-17T12:47:40.993Z,10
2016-04-17T12:48:40.995Z,10
2016-04-17T12:49:47.217Z,10
2016-04-17T12:50:41.000Z,10
2016-04-17T12:51:41.019Z,10
2016-04-17T12:52:41.006Z,10
2016-04-17T12:53:42.133Z,10
2016-04-17T12:54:41.027Z,10
2016-04-17T12:55:41.061Z,10
2016-04-17T12:56:41.001Z,10
2016-04-17T12:57:41.066Z,15
2016-04-17T12:58:43.226Z,15
2016-04-17T12:59:41.057Z,15
2016-04-17T13:00:41.075Z,15
2016-04-17T13:01:41.094Z,15
2016-04-17T13:02:41.096Z,20
2016-04-17T13:03:41.115Z,20
2016-04-17T13:04:41.102Z,20
2016-04-17T13:05:41.120Z,20
2016-04-17T13:06:41.122Z,25
2016-04-17T13:07:41.125Z,25
2016-04-17T13:08:41.143Z,25
2016-04-17T13:09:41.131Z,30
2016-04-17T13:10:41.164Z,35
2016-04-17T13:11:41.167Z,30
2016-04-17T13:12:41.185Z,30
2016-04-17T13:13:41.204Z,30
2016-04-17T13:14:41.190Z,25
2016-04-17T13:15:41.193Z,20
2016-04-17T13:16:41.212Z,20
2016-04-17T13:17:41.198Z,15
2016-04-17T13:18:41.201Z,15
2016-04-17T13:19:41.236Z,15
2016-04-17T13:20:41.222Z,15
2016-04-17T13:21:41.225Z,15
2016-04-17T13:22:41.244Z,20
2016-04-17T13:23:41.246Z,20
2016-04-17T13:24:41.264Z,20
2016-04-17T13:25:41.266Z,20
2016-04-17T13:26:41.285Z,15
2016-04-17T13:27:41.288Z,15
2016-04-17T13:28:41.307Z,15
2016-04-17T13:29:41.324Z,10
2016-04-17T13:30:41.327Z,10
2016-04-17T13:31:41.330Z,10
2016-04-17T13:32:41.302Z,10
2016-04-17T13:33:41.335Z,10
2016-04-17T13:34:41.323Z,10
2016-04-17T13:35:41.185Z,5
2016-04-17T13:36:41.343Z,5
2016-04-17T13:37:41.362Z,5
2016-04-17T13:38:41.365Z,5
2016-04-17T13:39:41.368Z,5
2016-04-17T13:40:41.385Z,5
2016-04-17T13:41:41.388Z,5
2016-04-17T13:42:41.391Z,5
2016-04-17T13:43:41.253Z,5
2016-04-17T13:44:41.412Z,5
2016-04-17T13:45:41.415Z,10
2016-04-17T13:46:41.433Z,10
2016-04-17T13:47:41.436Z,10
2016-04-17T13:48:41.454Z,10
2016-04-17T13:49:41.441Z,10
2016-04-17T13:50:41.475Z,10
2016-04-17T13:51:41.462Z,10
2016-04-17T13:52:41.480Z,10
2016-04-17T13:53:41.311Z,10
2016-04-17T13:54:41.502Z,10
2016-04-17T13:55:41.489Z,10
2016-04-17T13:56:41.491Z,10
2016-04-17T13:57:41.494Z,10
2016-04-17T13:58:41.513Z,10
2016-04-17T13:59:41.530Z,10
2016-04-17T14:00:41.533Z,10
2016-04-17T14:01:41.536Z,15
2016-04-17T14:02:41.569Z,15
2016-04-17T14:03:41.557Z,15
2016-04-17T14:04:41.559Z,15
2016-04-17T14:05:41.562Z,15
2016-04-17T14:06:41.580Z,15
2016-04-17T14:07:41.582Z,15
2016-04-17T14:08:41.585Z,20
2016-04-17T14:09:41.604Z,20
2016-04-17T14:10:41.637Z,20
2016-04-17T14:11:42.078Z,20
2016-04-17T14:12:41.612Z,15
2016-04-17T14:13:41.631Z,15
2016-04-17T14:14:41.633Z,10
2016-04-17T14:15:41.651Z,10
2016-04-17T14:16:41.639Z,10
2016-04-17T14:17:41.672Z,15
2016-04-17T14:18:41.675Z,15
2016-04-17T14:19:41.678Z,15
2016-04-17T14:20:41.680Z,15
2016-04-17T14:21:41.715Z,15
2016-04-17T14:22:41.703Z,10
2016-04-17T14:23:41.705Z,10
2016-04-17T14:24:41.708Z,5
2016-04-17T14:25:41.711Z,5
2016-04-17T14:26:41.728Z,5
2016-04-17T14:27:41.731Z,0
2016-04-17T14:28:41.719Z,0
2016-04-17T14:29:41.737Z,0
2016-04-17T14:30:41.755Z,0
2016-04-17T14:31:41.758Z,0
2016-04-17T14:32:41.761Z,5
2016-04-17T14:33:41.778Z,5
2016-04-17T14:34:41.781Z,5
2016-04-17T14:35:41.816Z,5
2016-04-17T14:36:41.802Z,5
2016-04-17T14:37:41.805Z,5
2016-04-17T14:38:41.808Z,5